createdAt,value
2018-07-28T00:02:22.555Z,52.83
2018-07-28T00:04:49.230Z,52.78
2018-07-28T00:07:15.868Z,52.71
2018-07-28T00:09:42.505Z,52.73
2018-07-28T00:12:09.143Z,52.84
2018-07-28T00:14:35.869Z,52.77
2018-07-28T00:17:02.507Z,52.73
2018-07-28T00:19:29.158Z,52.78
2018-07-28T00:21:55.845Z,52.62
2018-07-28T00:24:22.491Z,52.72
2018-07-28T00:26:49.126Z,52.64
2018-07-28T00:29:15.777Z,52.72
2018-07-28T00:31:42.429Z,52.58
2018-07-28T00:34:09.125Z,52.60
2018-07-28T00:36:35.753Z,52.64
2018-07-28T00:39:02.455Z,52.45
2018-07-28T00:41:29.088Z,52.52
2018-07-28T00:43:55.754Z,52.58
2018-07-28T00:46:22.390Z,52.53
2018-07-28T00:48:49.084Z,52.52
2018-07-28T00:51:15.717Z,52.54
2018-07-28T00:53:42.353Z,52.45
2018-07-28T00:56:09.008Z,52.42
2018-07-28T00:58:35.717Z,52.46
2018-07-28T01:01:02.356Z,52.42
2018-07-28T01:03:29.000Z,52.38
2018-07-28T01:05:55.659Z,52.28
2018-07-28T01:08:22.304Z,52.35
2018-07-28T01:10:48.998Z,52.37
2018-07-28T01:13:15.632Z,52.22
2018-07-28T01:15:42.267Z,52.25
2018-07-28T01:18:08.928Z,52.26
2018-07-28T01:20:35.642Z,52.29
2018-07-28T01:23:02.278Z,52.28
2018-07-28T01:25:28.914Z,52.24
2018-07-28T01:27:55.560Z,52.29
2018-07-28T01:30:22.201Z,52.19
2018-07-28T01:32:48.940Z,52.14
2018-07-28T01:35:15.587Z,52.13
2018-07-28T01:37:42.275Z,52.08
2018-07-28T01:40:08.923Z,52.08
2018-07-28T01:42:35.561Z,52.13
2018-07-28T01:45:02.200Z,52.13
2018-07-28T01:47:28.842Z,52.20
2018-07-28T01:49:57.677Z,52.13
2018-07-28T01:52:22.168Z,52.14
2018-07-28T01:54:48.884Z,52.04
2018-07-28T01:57:15.536Z,52.12
2018-07-28T01:59:42.246Z,52.04
2018-07-28T02:02:08.854Z,52.03
2018-07-28T02:04:35.544Z,52.03
2018-07-28T02:07:02.233Z,52.06
2018-07-28T02:09:28.874Z,52.11
2018-07-28T02:11:55.513Z,52.10
2018-07-28T02:14:22.148Z,52.04
2018-07-28T02:16:48.793Z,51.99
2018-07-28T02:19:15.435Z,52.00
2018-07-28T02:21:42.071Z,52.03
2018-07-28T02:24:08.785Z,52.02
2018-07-28T02:26:35.423Z,52.01
2018-07-28T02:29:02.065Z,52.01
2018-07-28T02:31:28.764Z,52.03
2018-07-28T02:33:55.410Z,51.96
2018-07-28T02:36:22.087Z,52.00
2018-07-28T02:38:48.725Z,51.88
2018-07-28T02:41:15.404Z,51.98
2018-07-28T02:43:42.041Z,51.98
2018-07-28T02:46:08.741Z,52.04
2018-07-28T02:48:35.396Z,52.02
2018-07-28T02:51:01.995Z,52.03
2018-07-28T02:53:28.640Z,52.10
2018-07-28T02:55:55.330Z,52.09
2018-07-28T02:58:22.018Z,52.05
2018-07-28T03:00:48.656Z,52.04
2018-07-28T03:03:15.303Z,52.11
2018-07-28T03:05:41.985Z,52.14
2018-07-28T03:08:08.592Z,52.13
2018-07-28T03:10:35.237Z,52.03
2018-07-28T03:13:01.874Z,52.02
2018-07-28T03:15:28.526Z,52.07
2018-07-28T03:17:55.240Z,52.14
2018-07-28T03:20:21.870Z,52.15
2018-07-28T03:22:48.530Z,52.14
2018-07-28T03:25:15.162Z,52.12
2018-07-28T03:27:41.863Z,52.31
2018-07-28T03:30:08.545Z,52.10
2018-07-28T03:32:35.175Z,52.15
2018-07-28T03:35:01.854Z,52.02
2018-07-28T03:37:28.452Z,52.08
2018-07-28T03:39:55.126Z,52.13
2018-07-28T03:42:21.759Z,52.07
2018-07-28T03:44:48.383Z,52.06
2018-07-28T03:47:15.034Z,52.00
2018-07-28T03:49:41.665Z,52.03
2018-07-28T03:52:08.333Z,52.03
2018-07-28T03:54:34.957Z,51.98
2018-07-28T03:57:01.585Z,51.93
2018-07-28T03:59:28.276Z,51.92
2018-07-28T04:01:54.911Z,51.99
2018-07-28T04:04:21.554Z,51.90
2018-07-28T04:06:48.202Z,51.89
2018-07-28T04:09:14.872Z,51.87
2018-07-28T04:11:41.528Z,51.79
2018-07-28T04:14:08.166Z,51.74
2018-07-28T04:16:34.805Z,50.61
2018-07-28T04:19:01.453Z,50.09
2018-07-28T04:21:28.101Z,50.53
2018-07-28T04:23:54.763Z,51.16
2018-07-28T04:26:21.422Z,51.19
2018-07-28T04:28:48.099Z,50.43
2018-07-28T04:31:14.786Z,50.10
2018-07-28T04:33:41.424Z,49.81
2018-07-28T04:36:08.112Z,50.13
2018-07-28T04:38:34.784Z,50.19
2018-07-28T04:41:01.429Z,50.30
2018-07-28T04:43:28.119Z,50.28
2018-07-28T04:45:54.795Z,49.77
2018-07-28T04:48:21.436Z,48.87
2018-07-28T04:50:48.080Z,50.45
2018-07-28T04:53:14.768Z,50.57
2018-07-28T04:55:41.449Z,50.48
2018-07-28T04:58:08.087Z,50.67
2018-07-28T05:00:34.721Z,50.96
2018-07-28T05:03:01.381Z,50.57
2018-07-28T05:05:28.015Z,50.45
2018-07-28T05:07:54.697Z,49.19
2018-07-28T05:10:21.332Z,49.18
2018-07-28T05:12:47.975Z,48.91
2018-07-28T05:15:14.637Z,47.99
2018-07-28T05:17:41.273Z,48.39
2018-07-28T05:20:07.997Z,47.66
2018-07-28T05:22:34.663Z,47.25
2018-07-28T05:25:01.304Z,47.64
2018-07-28T05:27:27.981Z,47.05
2018-07-28T05:29:54.715Z,47.11
2018-07-28T05:32:21.382Z,47.08
2018-07-28T05:34:48.022Z,46.66
2018-07-28T05:37:14.702Z,46.79
2018-07-28T05:39:41.341Z,46.29
2018-07-28T05:42:07.976Z,46.24
2018-07-28T05:44:34.617Z,46.23
2018-07-28T05:47:01.299Z,46.11
2018-07-28T05:49:27.946Z,46.05
2018-07-28T05:51:54.656Z,46.35
2018-07-28T05:54:21.313Z,45.99
2018-07-28T05:56:47.971Z,46.96
2018-07-28T05:59:14.670Z,46.88
2018-07-28T06:01:41.309Z,47.56
2018-07-28T06:04:08.002Z,48.10
2018-07-28T06:06:34.653Z,48.57
2018-07-28T06:09:01.293Z,48.62
2018-07-28T06:11:27.981Z,48.99
2018-07-28T06:13:54.722Z,49.34
2018-07-28T06:16:21.395Z,48.03
2018-07-28T06:18:47.999Z,48.39
2018-07-28T06:21:14.683Z,48.27
2018-07-28T06:23:41.423Z,47.72
2018-07-28T06:26:08.113Z,47.45
2018-07-28T06:28:34.705Z,47.35
2018-07-28T06:31:01.399Z,46.98
2018-07-28T06:33:28.050Z,46.85
2018-07-28T06:35:54.745Z,46.38
2018-07-28T06:38:24.328Z,46.62
2018-07-28T06:40:50.968Z,45.94
2018-07-28T06:43:17.686Z,45.83
2018-07-28T06:45:44.292Z,45.23
2018-07-28T06:48:10.965Z,45.56
2018-07-28T06:50:37.663Z,45.50
2018-07-28T06:53:04.348Z,45.29
2018-07-28T06:55:30.988Z,45.19
2018-07-28T06:57:57.726Z,45.09
2018-07-28T07:00:24.376Z,45.40
2018-07-28T07:02:51.071Z,45.20
2018-07-28T07:05:17.715Z,44.96
2018-07-28T07:07:44.357Z,45.35
2018-07-28T07:10:11.003Z,45.10
2018-07-28T07:12:37.686Z,45.07
2018-07-28T07:15:04.379Z,44.95
2018-07-28T07:17:31.009Z,45.25
2018-07-28T07:19:57.655Z,45.37
2018-07-28T07:22:24.343Z,44.78
2018-07-28T07:24:51.032Z,44.50
2018-07-28T07:27:17.648Z,45.29
2018-07-28T07:29:44.261Z,45.61
2018-07-28T07:32:10.901Z,45.98
2018-07-28T07:34:37.583Z,46.79
2018-07-28T07:37:04.211Z,46.51
2018-07-28T07:39:30.903Z,46.58
2018-07-28T07:41:57.539Z,44.87
2018-07-28T07:44:24.342Z,45.01
2018-07-28T07:46:50.863Z,44.85
2018-07-28T07:49:17.501Z,44.56
2018-07-28T07:51:44.227Z,44.59
2018-07-28T07:54:10.862Z,44.20
2018-07-28T07:56:37.550Z,44.30
2018-07-28T07:59:04.442Z,43.73
2018-07-28T08:01:30.928Z,43.87
2018-07-28T08:03:57.573Z,43.60
2018-07-28T08:06:24.335Z,43.82
2018-07-28T08:08:50.917Z,43.01
2018-07-28T08:11:17.792Z,43.48
2018-07-28T08:13:44.454Z,43.39
2018-07-28T08:16:11.143Z,43.33
2018-07-28T08:18:37.910Z,43.05
2018-07-28T08:21:04.632Z,43.05
2018-07-28T08:23:31.368Z,42.77
2018-07-28T08:25:58.010Z,42.74
2018-07-28T08:28:24.648Z,42.83
2018-07-28T08:30:51.288Z,42.38
2018-07-28T08:33:17.930Z,42.70
2018-07-28T08:35:44.598Z,42.25
2018-07-28T08:38:11.232Z,42.62
2018-07-28T08:40:37.922Z,42.20
2018-07-28T08:43:04.606Z,42.70
2018-07-28T08:45:31.262Z,42.15
2018-07-28T08:47:57.948Z,42.33
2018-07-28T08:50:24.623Z,42.35
2018-07-28T08:52:51.315Z,42.08
2018-07-28T08:55:17.955Z,42.31
2018-07-28T08:57:44.602Z,42.17
2018-07-28T09:00:11.284Z,42.26
2018-07-28T09:02:37.984Z,42.11
2018-07-28T09:05:04.617Z,42.14
2018-07-28T09:07:31.358Z,42.30
2018-07-28T09:09:57.997Z,42.17
2018-07-28T09:12:24.776Z,42.34
2018-07-28T09:14:51.346Z,42.18
2018-07-28T09:17:17.978Z,42.40
2018-07-28T09:19:44.697Z,42.37
2018-07-28T09:22:11.301Z,42.21
2018-07-28T09:24:37.997Z,42.39
2018-07-28T09:27:04.694Z,42.56
2018-07-28T09:29:31.382Z,42.45
2018-07-28T09:31:58.073Z,42.53
2018-07-28T09:34:24.710Z,42.33
2018-07-28T09:36:51.447Z,42.24
2018-07-28T09:39:18.068Z,42.45
2018-07-28T09:41:44.681Z,42.14
2018-07-28T09:44:11.323Z,42.13
2018-07-28T09:46:37.955Z,42.29
2018-07-28T09:49:04.702Z,42.08
2018-07-28T09:51:31.331Z,41.94
2018-07-28T09:53:57.957Z,42.01
2018-07-28T09:56:24.607Z,41.82
2018-07-28T09:58:51.297Z,41.91
2018-07-28T10:01:17.949Z,41.82
2018-07-28T10:03:44.586Z,41.77
2018-07-28T10:06:11.242Z,41.87
2018-07-28T10:08:37.925Z,41.88
2018-07-28T10:11:04.641Z,41.75
2018-07-28T10:13:31.320Z,41.54
2018-07-28T10:15:57.957Z,41.77
2018-07-28T10:18:24.638Z,41.56
2018-07-28T10:20:51.324Z,41.73
2018-07-28T10:23:18.003Z,41.45
2018-07-28T10:25:44.685Z,41.39
2018-07-28T10:28:11.319Z,41.60
2018-07-28T10:30:38.005Z,41.51
2018-07-28T10:33:04.641Z,41.57
2018-07-28T10:35:31.320Z,41.55
2018-07-28T10:37:57.947Z,41.39
2018-07-28T10:40:24.597Z,41.77
2018-07-28T10:42:51.281Z,41.43
2018-07-28T10:45:17.882Z,41.47
2018-07-28T10:47:44.522Z,41.14
2018-07-28T10:50:11.156Z,41.16
2018-07-28T10:52:37.795Z,41.13
2018-07-28T10:55:04.433Z,40.80
2018-07-28T10:57:31.073Z,40.95
2018-07-28T10:59:57.856Z,40.65
2018-07-28T11:02:24.448Z,40.50
2018-07-28T11:04:51.109Z,41.01
2018-07-28T11:07:17.776Z,40.67
2018-07-28T11:09:44.369Z,40.65
2018-07-28T11:12:11.005Z,40.85
2018-07-28T11:14:37.646Z,40.60
2018-07-28T11:17:04.295Z,40.55
2018-07-28T11:19:30.929Z,40.79
2018-07-28T11:21:57.628Z,40.44
2018-07-28T11:24:24.288Z,40.54
2018-07-28T11:26:51.055Z,40.39
2018-07-28T11:29:17.699Z,39.95
2018-07-28T11:31:44.397Z,40.27
2018-07-28T11:34:10.973Z,40.09
2018-07-28T11:36:37.623Z,39.94
2018-07-28T11:39:04.255Z,39.99
2018-07-28T11:41:30.986Z,39.93
2018-07-28T11:43:57.639Z,40.05
2018-07-28T11:46:24.279Z,39.88
2018-07-28T11:48:50.919Z,39.77
2018-07-28T11:51:17.635Z,40.35
2018-07-28T11:53:44.258Z,39.79
2018-07-28T11:56:10.898Z,39.81
2018-07-28T11:58:37.562Z,39.95
2018-07-28T12:01:04.199Z,39.71
2018-07-28T12:03:30.898Z,39.83
2018-07-28T12:05:57.541Z,40.10
2018-07-28T12:08:24.274Z,39.87
2018-07-28T12:10:50.912Z,40.05
2018-07-28T12:13:17.549Z,40.03
2018-07-28T12:15:44.188Z,39.72
2018-07-28T12:18:10.872Z,40.02
2018-07-28T12:20:37.470Z,39.83
2018-07-28T12:23:04.777Z,39.54
2018-07-28T12:25:31.427Z,39.87
2018-07-28T12:27:58.062Z,39.63
2018-07-28T12:30:24.698Z,39.35
2018-07-28T12:32:51.355Z,39.82
2018-07-28T12:35:17.992Z,39.54
2018-07-28T12:37:44.647Z,39.30
2018-07-28T12:40:11.295Z,39.61
2018-07-28T12:42:37.954Z,39.41
2018-07-28T12:45:04.593Z,39.48
2018-07-28T12:47:31.230Z,39.46
2018-07-28T12:49:57.885Z,39.28
2018-07-28T12:52:24.544Z,39.60
2018-07-28T12:54:51.183Z,39.33
2018-07-28T12:57:17.819Z,39.17
2018-07-28T12:59:44.537Z,39.42
2018-07-28T13:02:11.221Z,39.09
2018-07-28T13:04:37.836Z,38.98
2018-07-28T13:07:04.498Z,39.24
2018-07-28T13:09:31.137Z,39.03
2018-07-28T13:11:57.785Z,39.17
2018-07-28T13:14:24.429Z,39.19
2018-07-28T13:16:51.112Z,38.91
2018-07-28T13:19:17.774Z,39.02
2018-07-28T13:21:44.411Z,39.12
2018-07-28T13:24:11.048Z,38.93
2018-07-28T13:26:37.705Z,39.01
2018-07-28T13:29:04.382Z,39.08
2018-07-28T13:31:31.132Z,38.73
2018-07-28T13:33:57.769Z,38.71
2018-07-28T13:36:24.431Z,38.92
2018-07-28T13:38:51.069Z,38.82
2018-07-28T13:41:17.717Z,38.62
2018-07-28T13:43:44.353Z,38.89
2018-07-28T13:46:10.993Z,38.85
2018-07-28T13:48:37.631Z,38.58
2018-07-28T13:51:04.268Z,38.55
2018-07-28T13:53:30.909Z,38.67
2018-07-28T13:55:57.585Z,38.47
2018-07-28T13:58:24.225Z,38.64
2018-07-28T14:00:50.867Z,38.66
2018-07-28T14:03:17.503Z,38.40
2018-07-28T14:05:44.160Z,38.55
2018-07-28T14:08:10.803Z,38.60
2018-07-28T14:10:37.494Z,38.33
2018-07-28T14:13:04.135Z,38.43
2018-07-28T14:15:30.788Z,38.59
2018-07-28T14:17:57.444Z,38.69
2018-07-28T14:20:24.169Z,38.88
2018-07-28T14:22:50.813Z,39.10
2018-07-28T14:25:17.442Z,39.02
2018-07-28T14:27:44.078Z,38.99
2018-07-28T14:30:10.716Z,39.04
2018-07-28T14:32:37.353Z,38.83
2018-07-28T14:35:03.996Z,39.00
2018-07-28T14:37:30.636Z,39.14
2018-07-28T14:39:57.273Z,38.95
2018-07-28T14:42:23.994Z,39.01
2018-07-28T14:44:50.633Z,39.31
2018-07-28T14:47:17.284Z,39.27
2018-07-28T14:49:43.963Z,39.13
2018-07-28T14:52:10.592Z,39.52
2018-07-28T14:54:37.266Z,39.53
2018-07-28T14:57:03.903Z,39.27
2018-07-28T14:59:30.547Z,39.52
2018-07-28T15:01:57.290Z,39.44
2018-07-28T15:04:23.943Z,39.33
2018-07-28T15:06:50.660Z,39.42
2018-07-28T15:09:17.271Z,39.42
2018-07-28T15:11:43.907Z,39.29
2018-07-28T15:14:10.580Z,39.37
2018-07-28T15:16:37.217Z,39.24
2018-07-28T15:19:03.852Z,39.05
2018-07-28T15:21:30.519Z,39.28
2018-07-28T15:23:57.163Z,39.17
2018-07-28T15:26:23.816Z,39.06
2018-07-28T15:28:50.593Z,39.41
2018-07-28T15:31:17.091Z,39.82
2018-07-28T15:33:43.732Z,40.80
2018-07-28T15:36:10.366Z,40.70
2018-07-28T15:38:37.012Z,40.69
2018-07-28T15:41:03.640Z,40.30
2018-07-28T15:43:30.282Z,40.24
2018-07-28T15:45:56.929Z,39.94
2018-07-28T15:48:23.620Z,40.04
2018-07-28T15:50:50.266Z,39.95
2018-07-28T15:53:16.891Z,39.54
2018-07-28T15:55:43.546Z,39.78
2018-07-28T15:58:10.190Z,39.64
2018-07-28T16:00:36.838Z,39.56
2018-07-28T16:03:03.479Z,39.77
2018-07-28T16:05:30.165Z,39.76
2018-07-28T16:07:56.842Z,39.56
2018-07-28T16:10:23.479Z,39.44
2018-07-28T16:12:50.174Z,39.75
2018-07-28T16:15:16.808Z,39.56
2018-07-28T16:17:43.453Z,39.69
2018-07-28T16:20:10.167Z,39.94
2018-07-28T16:22:36.806Z,40.02
2018-07-28T16:25:03.442Z,39.93
2018-07-28T16:27:30.072Z,40.02
2018-07-28T16:29:56.715Z,40.24
2018-07-28T16:32:23.351Z,40.05
2018-07-28T16:34:52.246Z,40.31
2018-07-28T16:37:18.926Z,40.28
2018-07-28T16:39:45.562Z,40.58
2018-07-28T16:42:12.247Z,40.22
2018-07-28T16:44:38.885Z,40.50
2018-07-28T16:47:05.530Z,40.59
2018-07-28T16:49:32.180Z,40.65
2018-07-28T16:51:58.826Z,40.48
2018-07-28T16:54:25.496Z,40.43
2018-07-28T16:56:52.142Z,40.35
2018-07-28T16:59:18.780Z,40.66
2018-07-28T17:01:45.453Z,40.65
2018-07-28T17:04:12.083Z,40.68
2018-07-28T17:06:38.731Z,40.96
2018-07-28T17:09:05.367Z,40.85
2018-07-28T17:11:32.061Z,41.02
2018-07-28T17:13:58.748Z,41.03
2018-07-28T17:16:25.357Z,40.83
2018-07-28T17:18:52.053Z,41.11
2018-07-28T17:21:18.730Z,41.15
2018-07-28T17:23:45.363Z,41.35
2018-07-28T17:26:12.003Z,41.34
2018-07-28T17:28:38.699Z,41.13
2018-07-28T17:31:05.351Z,41.32
2018-07-28T17:33:31.962Z,41.13
2018-07-28T17:35:58.600Z,41.51
2018-07-28T17:38:25.298Z,41.53
2018-07-28T17:40:51.998Z,41.53
2018-07-28T17:43:18.573Z,41.59
2018-07-28T17:45:45.204Z,41.63
2018-07-28T17:48:11.889Z,42.09
2018-07-28T17:50:38.541Z,41.88
2018-07-28T17:53:05.227Z,43.57
2018-07-28T17:55:31.864Z,44.36
2018-07-28T17:57:58.516Z,45.03
2018-07-28T18:00:25.152Z,45.67
2018-07-28T18:02:51.810Z,46.24
2018-07-28T18:05:18.438Z,46.01
2018-07-28T18:07:45.112Z,46.04
2018-07-28T18:10:11.817Z,45.99
2018-07-28T18:12:38.458Z,45.96
2018-07-28T18:15:05.100Z,46.03
2018-07-28T18:17:31.769Z,46.04
2018-07-28T18:19:58.414Z,45.98
2018-07-28T18:22:25.053Z,46.22
2018-07-28T18:24:51.699Z,47.88
2018-07-28T18:27:18.397Z,48.26
2018-07-28T18:29:44.980Z,48.68
2018-07-28T18:32:11.624Z,49.18
2018-07-28T18:34:38.263Z,49.39
2018-07-28T18:37:04.955Z,49.91
2018-07-28T18:39:35.004Z,49.62
2018-07-28T18:42:01.656Z,49.79
2018-07-28T18:44:28.362Z,49.92
2018-07-28T18:46:55.015Z,49.12
2018-07-28T18:49:21.706Z,49.39
2018-07-28T18:51:48.400Z,49.18
2018-07-28T18:54:15.037Z,50.67
2018-07-28T18:56:43.616Z,51.41
2018-07-28T18:59:10.211Z,51.50
2018-07-28T19:01:36.900Z,51.83
2018-07-28T19:04:03.541Z,51.95
2018-07-28T19:06:30.221Z,51.71
2018-07-28T19:08:56.853Z,51.69
2018-07-28T19:11:23.500Z,51.87
2018-07-28T19:13:50.135Z,52.08
2018-07-28T19:16:16.831Z,52.00
2018-07-28T19:18:43.470Z,51.12
2018-07-28T19:21:10.118Z,51.12
2018-07-28T19:23:36.765Z,50.84
2018-07-28T19:26:03.387Z,50.66
2018-07-28T19:28:30.035Z,51.70
2018-07-28T19:30:56.694Z,52.46
2018-07-28T19:33:26.446Z,52.62
2018-07-28T19:35:53.077Z,52.61
2018-07-28T19:38:19.736Z,52.65
2018-07-28T19:40:46.359Z,52.79
2018-07-28T19:43:13.055Z,52.82
2018-07-28T19:45:39.694Z,52.55
2018-07-28T19:48:06.325Z,52.64
2018-07-28T19:50:33.013Z,52.94
2018-07-28T19:52:59.669Z,53.05
2018-07-28T19:55:26.345Z,53.02
2018-07-28T19:57:52.985Z,53.08
2018-07-28T20:00:19.676Z,52.94
2018-07-28T20:02:46.318Z,52.90
2018-07-28T20:05:13.026Z,52.89
2018-07-28T20:07:39.627Z,52.93
2018-07-28T20:10:06.260Z,52.09
2018-07-28T20:12:32.914Z,52.02
2018-07-28T20:14:59.561Z,53.27
2018-07-28T20:17:26.192Z,53.86
2018-07-28T20:19:52.888Z,53.72
2018-07-28T20:22:19.584Z,53.84
2018-07-28T20:24:46.211Z,53.68
2018-07-28T20:27:12.857Z,53.78
2018-07-28T20:29:39.507Z,53.83
2018-07-28T20:32:06.208Z,53.80
2018-07-28T20:34:32.835Z,53.67
2018-07-28T20:36:59.522Z,53.75
2018-07-28T20:39:26.179Z,53.77
2018-07-28T20:41:52.812Z,53.76
2018-07-28T20:44:19.477Z,53.69
2018-07-28T20:46:46.135Z,53.64
2018-07-28T20:49:12.809Z,53.72
2018-07-28T20:51:39.438Z,53.78
2018-07-28T20:54:06.097Z,53.76
2018-07-28T20:56:34.071Z,53.71
2018-07-28T20:58:59.365Z,53.77
2018-07-28T21:01:26.017Z,53.96
2018-07-28T21:03:52.697Z,52.62
2018-07-28T21:06:19.331Z,52.89
2018-07-28T21:08:46.030Z,52.71
2018-07-28T21:11:12.671Z,53.86
2018-07-28T21:13:39.311Z,54.04
2018-07-28T21:16:05.956Z,54.10
2018-07-28T21:18:32.596Z,54.04
2018-07-28T21:20:59.243Z,54.44
2018-07-28T21:23:25.942Z,54.71
2018-07-28T21:25:52.580Z,54.37
2018-07-28T21:28:19.236Z,54.64
2018-07-28T21:30:45.919Z,54.83
2018-07-28T21:33:12.569Z,54.75
2018-07-28T21:35:39.212Z,54.51
2018-07-28T21:38:05.867Z,54.60
2018-07-28T21:40:32.554Z,54.42
2018-07-28T21:42:59.208Z,54.54
2018-07-28T21:45:25.974Z,54.51
2018-07-28T21:47:52.579Z,54.49
2018-07-28T21:50:19.221Z,54.50
2018-07-28T21:52:45.901Z,54.53
2018-07-28T21:55:12.556Z,54.52
2018-07-28T21:57:39.187Z,54.58
2018-07-28T22:00:05.898Z,54.57
2018-07-28T22:02:32.530Z,54.63
2018-07-28T22:04:59.203Z,54.49
2018-07-28T22:07:26.134Z,54.63
2018-07-28T22:09:52.773Z,54.63
2018-07-28T22:12:19.547Z,54.63
2018-07-28T22:14:46.181Z,54.61
2018-07-28T22:17:12.827Z,54.79
2018-07-28T22:19:39.490Z,54.76
2018-07-28T22:22:06.130Z,54.75
2018-07-28T22:24:32.815Z,54.75
2018-07-28T22:26:59.449Z,54.73
2018-07-28T22:29:26.137Z,54.72
2018-07-28T22:31:52.828Z,54.72
2018-07-28T22:34:19.465Z,54.78
2018-07-28T22:36:46.152Z,54.91
2018-07-28T22:39:12.798Z,54.85
2018-07-28T22:41:39.494Z,54.83
2018-07-28T22:44:06.170Z,54.79
2018-07-28T22:46:32.810Z,54.81
2018-07-28T22:48:59.518Z,54.91
2018-07-28T22:51:26.120Z,54.90
2018-07-28T22:53:52.763Z,54.83
2018-07-28T22:56:19.410Z,54.95
2018-07-28T22:58:46.096Z,55.06
2018-07-28T23:01:12.829Z,55.04
2018-07-28T23:03:39.443Z,54.96
2018-07-28T23:06:06.077Z,55.03
2018-07-28T23:08:32.751Z,55.14
2018-07-28T23:10:59.441Z,54.86
2018-07-28T23:13:26.084Z,54.92
2018-07-28T23:15:52.764Z,54.95
2018-07-28T23:18:19.450Z,54.77
2018-07-28T23:20:46.087Z,54.74
2018-07-28T23:23:12.789Z,54.77
2018-07-28T23:25:39.426Z,54.94
2018-07-28T23:28:06.060Z,54.89
2018-07-28T23:30:32.731Z,54.72
2018-07-28T23:32:59.368Z,54.60
2018-07-28T23:35:26.048Z,54.64
2018-07-28T23:37:52.734Z,54.67
2018-07-28T23:40:19.374Z,54.62
2018-07-28T23:42:46.022Z,54.53
2018-07-28T23:45:12.659Z,54.59
2018-07-28T23:47:39.302Z,54.54
2018-07-28T23:50:05.934Z,54.64
2018-07-28T23:52:32.583Z,54.55
2018-07-28T23:54:59.208Z,54.50
2018-07-28T23:57:25.846Z,54.51
2018-07-28T23:59:52.482Z,54.65
